Albany Center, Vermont
Current Conditions -  °F | °C
As of 12:35 PM on Thursday 23 Oct 2014 (Local Time) from KEFK Reporting Station
Drizzle Drizzle  
Wind Chill:   Ceiling: 900
Heat Index:   Visibility: 10mi
Dew Point:   Wind: 16mph
Humidity: 93%   Direction: 360°N
Pressure: 29.94"   Gusts: 21mph
Location:  44.8143°N, 72.284°W
Report Text: KEFK 231635Z AUTO 36014G18KT 10SM DZ OVC009 06/05 A2994 RMK AO2 T00610050
Loading
Personal Weather Stations






























Interactive Weather Map
Tropical Storm Tracking
New forecast layout! Learn more

10-Day Weather Forecast

Advertisements
Track Severe Weather on mobile